Bjerringbro, Denmark
Current Conditions -  °F | °C
As of 2:24 AM on Tuesday 21 Oct 2014 (Local Time) from EKKA Reporting Station
Moderate Fog Moderate Fog  
Wind Chill: 50°   Ceiling: Unl
Heat Index: 50°   Visibility: 0.25mi
Dew Point: 48°   Wind: 6mph
Humidity: 94%   Direction: 190°S
Pressure: 29.68"   Gusts: NA
Location:  56.38°N, 9.66°E
Report Text: EKKA 210024Z 19005KT 0400 R09/P2000N R27/1000D FG SCT00110/09 Q1005
Loading
Personal Weather Stations






























Interactive Weather Map
Tropical Storm Tracking
New forecast layout! Learn more

10-Day Weather Forecast

Advertisements
Track Severe Weather on mobile